sensor_id;sensor_type;location;lat;lon;timestamp;pressure;altitude;pressure_sealevel;temperature;humidity
46303;BME280;32029;51.358;5.628;2022-11-20T00:01:23;100980.28;;;4.13;67.06
46303;BME280;32029;51.358;5.628;2022-11-20T00:03:51;100987.91;;;4.10;66.94
46303;BME280;32029;51.358;5.628;2022-11-20T00:06:18;101007.88;;;4.09;67.56
46303;BME280;32029;51.358;5.628;2022-11-20T00:08:45;100981.56;;;3.80;67.59
46303;BME280;32029;51.358;5.628;2022-11-20T00:11:14;101032.03;;;4.02;67.11
46303;BME280;32029;51.358;5.628;2022-11-20T00:13:40;100993.94;;;3.73;67.87
46303;BME280;32029;51.358;5.628;2022-11-20T00:16:09;100990.50;;;3.61;68.52
46303;BME280;32029;51.358;5.628;2022-11-20T00:18:37;101027.69;;;3.80;68.58
46303;BME280;32029;51.358;5.628;2022-11-20T00:21:13;101036.69;;;3.71;68.79
46303;BME280;32029;51.358;5.628;2022-11-20T00:23:40;101025.44;;;3.55;69.32
46303;BME280;32029;51.358;5.628;2022-11-20T00:26:09;100990.66;;;3.29;69.41
46303;BME280;32029;51.358;5.628;2022-11-20T00:28:36;101037.28;;;3.44;69.81
46303;BME280;32029;51.358;5.628;2022-11-20T00:31:03;101031.53;;;3.37;69.77
46303;BME280;32029;51.358;5.628;2022-11-20T00:33:30;101024.66;;;3.33;70.05
46303;BME280;32029;51.358;5.628;2022-11-20T00:36:04;100973.28;;;3.01;70.52
46303;BME280;32029;51.358;5.628;2022-11-20T00:38:33;101021.03;;;3.23;70.79
46303;BME280;32029;51.358;5.628;2022-11-20T00:41:01;100992.25;;;3.01;70.37
46303;BME280;32029;51.358;5.628;2022-11-20T00:43:28;101021.59;;;3.17;70.58
46303;BME280;32029;51.358;5.628;2022-11-20T00:45:58;100988.47;;;2.92;70.07
46303;BME280;32029;51.358;5.628;2022-11-20T00:48:24;100995.75;;;2.92;70.23
46303;BME280;32029;51.358;5.628;2022-11-20T00:50:50;101000.47;;;2.90;70.15
46303;BME280;32029;51.358;5.628;2022-11-20T00:53:16;101017.78;;;2.99;70.71
46303;BME280;32029;51.358;5.628;2022-11-20T00:55:42;100968.47;;;2.63;71.21
46303;BME280;32029;51.358;5.628;2022-11-20T00:58:08;101020.44;;;2.89;71.19
46303;BME280;32029;51.358;5.628;2022-11-20T01:00:34;101011.22;;;2.80;71.14
46303;BME280;32029;51.358;5.628;2022-11-20T01:03:00;101015.69;;;2.81;71.10
46303;BME280;32029;51.358;5.628;2022-11-20T01:05:26;101004.41;;;2.65;71.57
46303;BME280;32029;51.358;5.628;2022-11-20T01:07:54;101020.75;;;2.75;71.57
46303;BME280;32029;51.358;5.628;2022-11-20T01:10:20;100979.53;;;2.50;71.63
46303;BME280;32029;51.358;5.628;2022-11-20T01:12:46;100983.50;;;2.46;71.88
46303;BME280;32029;51.358;5.628;2022-11-20T01:15:33;101020.38;;;2.58;72.26
46303;BME280;32029;51.358;5.628;2022-11-20T01:17:59;101017.06;;;2.55;72.63
46303;BME280;32029;51.358;5.628;2022-11-20T01:20:25;101015.59;;;2.51;72.59
46303;BME280;32029;51.358;5.628;2022-11-20T01:22:51;101006.66;;;2.39;72.84
46303;BME280;32029;51.358;5.628;2022-11-20T01:25:17;101016.97;;;2.45;73.17
46303;BME280;32029;51.358;5.628;2022-11-20T01:27:43;100987.75;;;2.28;73.71
46303;BME280;32029;51.358;5.628;2022-11-20T01:30:09;101003.47;;;2.34;74.00
46303;BME280;32029;51.358;5.628;2022-11-20T01:32:35;100972.41;;;2.17;74.37
46303;BME280;32029;51.358;5.628;2022-11-20T01:35:01;101016.25;;;2.43;75.17
46303;BME280;32029;51.358;5.628;2022-11-20T01:37:27;101022.47;;;2.55;75.48
46303;BME280;32029;51.358;5.628;2022-11-20T01:39:53;101011.09;;;2.61;75.56
46303;BME280;32029;51.358;5.628;2022-11-20T01:42:19;100961.97;;;2.33;75.54
46303;BME280;32029;51.358;5.628;2022-11-20T01:48:07;101018.84;;;2.86;74.90
46303;BME280;32029;51.358;5.628;2022-11-20T01:50:34;101014.63;;;2.93;74.45
46303;BME280;32029;51.358;5.628;2022-11-20T01:53:05;101003.97;;;3.02;74.18
46303;BME280;32029;51.358;5.628;2022-11-20T01:55:35;100965.75;;;2.84;73.95
46303;BME280;32029;51.358;5.628;2022-11-20T01:58:02;100996.28;;;3.07;73.57
46303;BME280;32029;51.358;5.628;2022-11-20T02:00:28;100987.13;;;3.08;73.66
46303;BME280;32029;51.358;5.628;2022-11-20T02:02:58;100891.44;;;2.56;73.34
46303;BME280;32029;51.358;5.628;2022-11-20T02:05:28;101015.78;;;3.31;73.51
46303;BME280;32029;51.358;5.628;2022-11-20T02:07:57;100987.13;;;3.08;73.21
46303;BME280;32029;51.358;5.628;2022-11-20T02:10:25;101022.47;;;3.27;72.85
46303;BME280;32029;51.358;5.628;2022-11-20T02:12:53;100962.31;;;2.82;72.85
46303;BME280;32029;51.358;5.628;2022-11-20T02:15:38;101015.44;;;3.15;73.38
46303;BME280;32029;51.358;5.628;2022-11-20T02:18:05;101008.47;;;3.22;73.40
46303;BME280;32029;51.358;5.628;2022-11-20T02:20:32;100981.50;;;3.21;73.32
46303;BME280;32029;51.358;5.628;2022-11-20T02:23:05;101007.56;;;3.42;73.25
46303;BME280;32029;51.358;5.628;2022-11-20T02:25:35;101003.91;;;3.53;73.00
46303;BME280;32029;51.358;5.628;2022-11-20T02:28:02;100995.06;;;3.61;72.65
46303;BME280;32029;51.358;5.628;2022-11-20T02:30:32;100954.16;;;3.43;72.64
46303;BME280;32029;51.358;5.628;2022-11-20T02:32:58;100996.66;;;3.73;72.21
46303;BME280;32029;51.358;5.628;2022-11-20T02:37:54;100995.13;;;3.80;72.31
46303;BME280;32029;51.358;5.628;2022-11-20T02:40:20;100959.38;;;3.65;72.08
46303;BME280;32029;51.358;5.628;2022-11-20T02:42:47;100986.28;;;3.88;71.88
46303;BME280;32029;51.358;5.628;2022-11-20T02:45:13;100974.25;;;3.81;72.05
46303;BME280;32029;51.358;5.628;2022-11-20T02:47:39;100960.25;;;3.76;72.41
46303;BME280;32029;51.358;5.628;2022-11-20T02:50:05;100955.41;;;3.79;71.97
46303;BME280;32029;51.358;5.628;2022-11-20T02:52:31;100987.72;;;4.02;72.22
46303;BME280;32029;51.358;5.628;2022-11-20T02:54:57;100971.69;;;3.89;72.20
46303;BME280;32029;51.358;5.628;2022-11-20T02:57:23;101001.28;;;4.02;71.50
46303;BME280;32029;51.358;5.628;2022-11-20T02:59:49;100965.97;;;3.73;72.00
46303;BME280;32029;51.358;5.628;2022-11-20T03:02:15;100968.94;;;3.60;72.51
46303;BME280;32029;51.358;5.628;2022-11-20T03:04:42;101004.00;;;3.82;72.44
46303;BME280;32029;51.358;5.628;2022-11-20T03:07:08;101012.84;;;3.84;72.62
46303;BME280;32029;51.358;5.628;2022-11-20T03:09:35;100987.13;;;3.88;73.06
46303;BME280;32029;51.358;5.628;2022-11-20T03:12:01;100946.66;;;3.66;72.67
46303;BME280;32029;51.358;5.628;2022-11-20T03:14:28;100990.00;;;3.97;72.65
46303;BME280;32029;51.358;5.628;2022-11-20T03:16:55;100984.03;;;4.03;72.56
46303;BME280;32029;51.358;5.628;2022-11-20T03:19:21;100993.59;;;4.07;72.41
46303;BME280;32029;51.358;5.628;2022-11-20T03:21:47;100961.84;;;3.98;72.22
46303;BME280;32029;51.358;5.628;2022-11-20T03:24:15;100985.72;;;4.13;72.33
46303;BME280;32029;51.358;5.628;2022-11-20T03:26:41;100964.00;;;4.04;72.16
46303;BME280;32029;51.358;5.628;2022-11-20T03:29:07;100923.81;;;3.78;71.77
46303;BME280;32029;51.358;5.628;2022-11-20T03:31:38;100861.78;;;3.44;71.62
46303;BME280;32029;51.358;5.628;2022-11-20T03:34:07;100977.56;;;4.13;72.16
46303;BME280;32029;51.358;5.628;2022-11-20T03:36:35;100974.00;;;4.13;72.21
46303;BME280;32029;51.358;5.628;2022-11-20T03:39:03;100972.88;;;4.15;72.63
46303;BME280;32029;51.358;5.628;2022-11-20T03:41:31;100934.00;;;3.96;72.90
46303;BME280;32029;51.358;5.628;2022-11-20T03:43:59;100971.75;;;4.18;72.66
46303;BME280;32029;51.358;5.628;2022-11-20T03:46:27;100972.59;;;4.18;72.48
46303;BME280;32029;51.358;5.628;2022-11-20T03:48:54;100930.84;;;4.00;72.58
46303;BME280;32029;51.358;5.628;2022-11-20T03:51:22;100970.31;;;4.24;72.85
46303;BME280;32029;51.358;5.628;2022-11-20T03:53:49;100975.72;;;4.24;72.52
46303;BME280;32029;51.358;5.628;2022-11-20T03:56:17;100966.72;;;4.23;72.29
46303;BME280;32029;51.358;5.628;2022-11-20T03:58:44;100917.13;;;3.92;72.81
46303;BME280;32029;51.358;5.628;2022-11-20T04:03:37;100969.16;;;4.26;72.16
46303;BME280;32029;51.358;5.628;2022-11-20T04:06:10;100960.88;;;4.28;71.90
46303;BME280;32029;51.358;5.628;2022-11-20T04:08:37;100955.44;;;4.28;71.84
46303;BME280;32029;51.358;5.628;2022-11-20T04:13:42;100943.13;;;4.24;71.65
46303;BME280;32029;51.358;5.628;2022-11-20T04:16:09;100887.69;;;3.87;71.40
46303;BME280;32029;51.358;5.628;2022-11-20T04:18:36;100931.97;;;4.17;71.38
46303;BME280;32029;51.358;5.628;2022-11-20T04:21:02;100939.72;;;4.22;71.43
46303;BME280;32029;51.358;5.628;2022-11-20T04:23:29;100940.56;;;4.22;71.46
46303;BME280;32029;51.358;5.628;2022-11-20T04:26:00;100925.44;;;4.10;71.47
46303;BME280;32029;51.358;5.628;2022-11-20T04:28:27;100946.00;;;4.22;71.52
46303;BME280;32029;51.358;5.628;2022-11-20T04:30:53;100948.72;;;4.22;71.58
46303;BME280;32029;51.358;5.628;2022-11-20T04:33:19;100952.41;;;4.21;71.35
46303;BME280;32029;51.358;5.628;2022-11-20T04:35:46;100940.84;;;4.19;71.76
46303;BME280;32029;51.358;5.628;2022-11-20T04:38:13;100942.56;;;4.20;71.58
46303;BME280;32029;51.358;5.628;2022-11-20T04:40:39;100915.69;;;4.07;71.97
46303;BME280;32029;51.358;5.628;2022-11-20T04:43:07;100921.13;;;4.17;72.22
46303;BME280;32029;51.358;5.628;2022-11-20T04:45:33;100919.00;;;4.11;71.82
46303;BME280;32029;51.358;5.628;2022-11-20T04:47:59;100892.25;;;3.97;71.34
46303;BME280;32029;51.358;5.628;2022-11-20T04:50:25;100937.41;;;4.17;71.85
46303;BME280;32029;51.358;5.628;2022-11-20T04:52:51;100956.16;;;4.30;71.51
46303;BME280;32029;51.358;5.628;2022-11-20T04:55:17;100925.69;;;4.16;71.51
46303;BME280;32029;51.358;5.628;2022-11-20T04:57:43;100907.41;;;4.18;71.58
46303;BME280;32029;51.358;5.628;2022-11-20T05:00:10;100958.28;;;4.36;71.55
46303;BME280;32029;51.358;5.628;2022-11-20T05:02:36;100927.41;;;4.27;70.97
46303;BME280;32029;51.358;5.628;2022-11-20T05:05:04;100886.69;;;4.08;70.81
46303;BME280;32029;51.358;5.628;2022-11-20T05:07:30;100928.28;;;4.37;70.71
46303;BME280;32029;51.358;5.628;2022-11-20T05:09:57;100911.97;;;4.28;70.87
46303;BME280;32029;51.358;5.628;2022-11-20T05:12:23;100894.25;;;4.24;71.06
46303;BME280;32029;51.358;5.628;2022-11-20T05:14:49;100928.53;;;4.44;71.26
46303;BME280;32029;51.358;5.628;2022-11-20T05:17:16;100835.66;;;3.92;71.24
46303;BME280;32029;51.358;5.628;2022-11-20T05:19:42;100898.25;;;4.29;71.36
46303;BME280;32029;51.358;5.628;2022-11-20T05:22:09;100913.81;;;4.47;71.88
46303;BME280;32029;51.358;5.628;2022-11-20T05:24:36;100903.66;;;4.49;71.75
46303;BME280;32029;51.358;5.628;2022-11-20T05:27:03;100895.34;;;4.40;71.70
46303;BME280;32029;51.358;5.628;2022-11-20T05:29:31;100905.09;;;4.53;72.19
46303;BME280;32029;51.358;5.628;2022-11-20T05:31:58;100883.06;;;4.36;71.87
46303;BME280;32029;51.358;5.628;2022-11-20T05:34:26;100905.19;;;4.61;71.83
46303;BME280;32029;51.358;5.628;2022-11-20T05:36:52;100904.19;;;4.62;71.62
46303;BME280;32029;51.358;5.628;2022-11-20T05:39:20;100903.91;;;4.65;71.76
46303;BME280;32029;51.358;5.628;2022-11-20T05:41:48;100899.31;;;4.65;71.60
46303;BME280;32029;51.358;5.628;2022-11-20T05:44:35;100836.34;;;4.23;71.68
46303;BME280;32029;51.358;5.628;2022-11-20T05:47:01;100901.59;;;4.70;71.95
46303;BME280;32029;51.358;5.628;2022-11-20T05:49:28;100888.16;;;4.59;71.90
46303;BME280;32029;51.358;5.628;2022-11-20T05:51:56;100888.16;;;4.59;71.62
46303;BME280;32029;51.358;5.628;2022-11-20T05:54:22;100916.44;;;4.76;71.54
46303;BME280;32029;51.358;5.628;2022-11-20T05:56:50;100918.19;;;4.77;71.27
46303;BME280;32029;51.358;5.628;2022-11-20T05:59:18;100922.44;;;4.79;71.19
46303;BME280;32029;51.358;5.628;2022-11-20T06:01:44;100832.50;;;4.26;71.13
46303;BME280;32029;51.358;5.628;2022-11-20T06:04:12;100926.75;;;4.82;71.44
46303;BME280;32029;51.358;5.628;2022-11-20T06:06:38;100915.31;;;4.78;71.00
46303;BME280;32029;51.358;5.628;2022-11-20T06:09:04;100901.03;;;4.66;70.88
46303;BME280;32029;51.358;5.628;2022-11-20T06:11:32;100916.44;;;4.76;70.51
46303;BME280;32029;51.358;5.628;2022-11-20T06:13:58;100762.81;;;3.78;70.57
46303;BME280;32029;51.358;5.628;2022-11-20T06:16:25;100886.78;;;4.45;70.32
46303;BME280;32029;51.358;5.628;2022-11-20T06:18:53;100934.78;;;4.64;70.94
46303;BME280;32029;51.358;5.628;2022-11-20T06:21:21;100939.13;;;4.57;71.61
46303;BME280;32029;51.358;5.628;2022-11-20T06:23:49;100937.38;;;4.56;72.19
46303;BME280;32029;51.358;5.628;2022-11-20T06:26:18;100934.25;;;4.60;72.36
46303;BME280;32029;51.358;5.628;2022-11-20T06:28:45;100926.94;;;4.61;72.87
46303;BME280;32029;51.358;5.628;2022-11-20T06:31:14;100924.63;;;4.66;72.70
46303;BME280;32029;51.358;5.628;2022-11-20T06:33:41;100889.75;;;4.52;72.75
46303;BME280;32029;51.358;5.628;2022-11-20T06:36:10;100935.47;;;4.85;72.79
46303;BME280;32029;51.358;5.628;2022-11-20T06:38:37;100941.47;;;4.89;72.88
46303;BME280;32029;51.358;5.628;2022-11-20T06:41:06;100877.59;;;4.56;72.71
46303;BME280;32029;51.358;5.628;2022-11-20T06:43:34;100945.31;;;4.96;72.82
46303;BME280;32029;51.358;5.628;2022-11-20T06:46:02;100935.84;;;5.00;73.15
46303;BME280;32029;51.358;5.628;2022-11-20T06:48:30;100912.13;;;4.93;72.87
46303;BME280;32029;51.358;5.628;2022-11-20T06:50:57;100936.81;;;5.09;72.91
46303;BME280;32029;51.358;5.628;2022-11-20T06:53:25;100913.38;;;4.98;72.57
46303;BME280;32029;51.358;5.628;2022-11-20T06:55:55;100920.66;;;5.07;72.75
46303;BME280;32029;51.358;5.628;2022-11-20T06:58:26;100928.06;;;5.15;72.42
46303;BME280;32029;51.358;5.628;2022-11-20T07:01:03;100895.34;;;4.97;72.90
46303;BME280;32029;51.358;5.628;2022-11-20T07:03:29;100902.19;;;5.01;73.00
46303;BME280;32029;51.358;5.628;2022-11-20T07:05:56;100918.88;;;5.16;72.68
46303;BME280;32029;51.358;5.628;2022-11-20T07:08:24;100869.91;;;4.88;72.78
46303;BME280;32029;51.358;5.628;2022-11-20T07:10:51;100912.03;;;5.12;72.66
46303;BME280;32029;51.358;5.628;2022-11-20T07:13:19;100924.63;;;5.13;72.87
46303;BME280;32029;51.358;5.628;2022-11-20T07:15:45;100882.91;;;4.95;73.14
46303;BME280;32029;51.358;5.628;2022-11-20T07:18:12;100927.31;;;5.23;73.27
46303;BME280;32029;51.358;5.628;2022-11-20T07:20:38;100908.31;;;5.13;73.45
46303;BME280;32029;51.358;5.628;2022-11-20T07:23:05;100871.44;;;5.01;73.63
46303;BME280;32029;51.358;5.628;2022-11-20T07:25:33;100865.69;;;5.04;73.69
46303;BME280;32029;51.358;5.628;2022-11-20T07:28:00;100834.84;;;4.85;73.46
46303;BME280;32029;51.358;5.628;2022-11-20T07:30:27;100860.84;;;4.98;73.40
46303;BME280;32029;51.358;5.628;2022-11-20T07:32:54;100909.22;;;5.31;73.16
46303;BME280;32029;51.358;5.628;2022-11-20T07:35:22;100909.22;;;5.31;73.20
46303;BME280;32029;51.358;5.628;2022-11-20T07:37:50;100912.81;;;5.32;73.43
46303;BME280;32029;51.358;5.628;2022-11-20T07:40:17;100904.63;;;5.32;73.67
46303;BME280;32029;51.358;5.628;2022-11-20T07:42:49;100908.22;;;5.32;73.78
46303;BME280;32029;51.358;5.628;2022-11-20T07:45:17;100905.09;;;5.27;73.99
46303;BME280;32029;51.358;5.628;2022-11-20T07:47:43;100921.53;;;5.35;74.09
46303;BME280;32029;51.358;5.628;2022-11-20T07:50:11;100866.09;;;5.09;74.25
46303;BME280;32029;51.358;5.628;2022-11-20T07:52:37;100883.66;;;5.14;73.95
46303;BME280;32029;51.358;5.628;2022-11-20T07:55:04;100885.63;;;5.22;74.40
46303;BME280;32029;51.358;5.628;2022-11-20T07:57:31;100923.63;;;5.41;74.70
46303;BME280;32029;51.358;5.628;2022-11-20T07:59:58;100912.81;;;5.32;74.34
46303;BME280;32029;51.358;5.628;2022-11-20T08:02:26;100894.50;;;5.24;74.65
46303;BME280;32029;51.358;5.628;2022-11-20T08:04:52;100849.38;;;5.04;74.56
46303;BME280;32029;51.358;5.628;2022-11-20T08:07:19;100933.16;;;5.55;74.97
46303;BME280;32029;51.358;5.628;2022-11-20T08:09:45;100931.69;;;5.61;74.68
46303;BME280;32029;51.358;5.628;2022-11-20T08:12:18;100895.34;;;5.52;75.17
46303;BME280;32029;51.358;5.628;2022-11-20T08:15:05;100885.41;;;5.61;75.18
46303;BME280;32029;51.358;5.628;2022-11-20T08:17:32;100886.81;;;5.65;75.09
46303;BME280;32029;51.358;5.628;2022-11-20T08:20:00;100854.47;;;5.62;74.74
46303;BME280;32029;51.358;5.628;2022-11-20T08:22:28;100909.72;;;6.08;75.17
46303;BME280;32029;51.358;5.628;2022-11-20T08:24:57;100867.56;;;5.94;74.76
46303;BME280;32029;51.358;5.628;2022-11-20T08:27:24;100849.03;;;5.98;75.02
46303;BME280;32029;51.358;5.628;2022-11-20T08:29:52;100895.00;;;6.36;74.68
46303;BME280;32029;51.358;5.628;2022-11-20T08:32:19;100822.72;;;6.06;74.07
46303;BME280;32029;51.358;5.628;2022-11-20T08:34:45;100875.69;;;6.48;74.63
46303;BME280;32029;51.358;5.628;2022-11-20T08:37:14;100801.09;;;6.05;73.94
46303;BME280;32029;51.358;5.628;2022-11-20T08:39:40;100858.06;;;6.42;73.98
46303;BME280;32029;51.358;5.628;2022-11-20T08:42:08;100868.72;;;6.53;73.41
46303;BME280;32029;51.358;5.628;2022-11-20T08:44:35;100846.94;;;6.35;73.76
46303;BME280;32029;51.358;5.628;2022-11-20T08:47:02;100868.66;;;6.45;73.68
46303;BME280;32029;51.358;5.628;2022-11-20T08:49:28;100894.56;;;6.67;73.70
46303;BME280;32029;51.358;5.628;2022-11-20T08:51:56;100884.81;;;6.65;73.51
46303;BME280;32029;51.358;5.628;2022-11-20T08:54:23;100857.75;;;6.45;73.51
46303;BME280;32029;51.358;5.628;2022-11-20T08:56:50;100880.03;;;6.67;73.49
46303;BME280;32029;51.358;5.628;2022-11-20T08:59:18;100896.66;;;6.81;73.40
46303;BME280;32029;51.358;5.628;2022-11-20T09:01:46;100888.47;;;6.81;73.58
46303;BME280;32029;51.358;5.628;2022-11-20T09:04:12;100901.22;;;6.99;73.57
46303;BME280;32029;51.358;5.628;2022-11-20T09:06:40;100866.84;;;6.80;74.05
46303;BME280;32029;51.358;5.628;2022-11-20T09:09:07;100881.59;;;6.95;74.11
46303;BME280;32029;51.358;5.628;2022-11-20T09:11:35;100881.44;;;7.05;74.28
46303;BME280;32029;51.358;5.628;2022-11-20T09:14:04;100904.41;;;7.28;74.07
46303;BME280;32029;51.358;5.628;2022-11-20T09:16:32;100876.56;;;7.17;73.96
46303;BME280;32029;51.358;5.628;2022-11-20T09:19:01;100886.19;;;7.37;74.04
46303;BME280;32029;51.358;5.628;2022-11-20T09:21:27;100846.53;;;7.17;73.79
46303;BME280;32029;51.358;5.628;2022-11-20T09:23:56;100872.06;;;7.42;73.49
46303;BME280;32029;51.358;5.628;2022-11-20T09:26:23;100843.72;;;7.34;73.82
46303;BME280;32029;51.358;5.628;2022-11-20T09:28:50;100856.69;;;7.41;73.87
46303;BME280;32029;51.358;5.628;2022-11-20T09:31:23;100854.84;;;7.41;74.25
46303;BME280;32029;51.358;5.628;2022-11-20T09:33:50;100810.22;;;7.24;74.46
46303;BME280;32029;51.358;5.628;2022-11-20T09:36:17;100839.31;;;7.50;74.80
46303;BME280;32029;51.358;5.628;2022-11-20T09:38:46;100858.47;;;7.66;74.63
46303;BME280;32029;51.358;5.628;2022-11-20T09:41:26;100852.84;;;7.76;74.97
46303;BME280;32029;51.358;5.628;2022-11-20T09:44:11;100811.31;;;7.48;74.91
46303;BME280;32029;51.358;5.628;2022-11-20T09:46:55;100829.47;;;7.73;75.17
46303;BME280;32029;51.358;5.628;2022-11-20T09:52:21;100837.53;;;8.07;74.45
46303;BME280;32029;51.358;5.628;2022-11-20T09:54:49;100834.94;;;8.14;74.78
46303;BME280;32029;51.358;5.628;2022-11-20T09:57:20;100846.22;;;8.19;74.49
46303;BME280;32029;51.358;5.628;2022-11-20T09:59:52;100838.19;;;8.26;74.77
46303;BME280;32029;51.358;5.628;2022-11-20T10:05:03;100824.88;;;8.39;74.42
46303;BME280;32029;51.358;5.628;2022-11-20T10:07:44;100814.25;;;8.36;73.87
46303;BME280;32029;51.358;5.628;2022-11-20T10:10:35;100810.16;;;8.48;74.41
46303;BME280;32029;51.358;5.628;2022-11-20T10:18:54;100793.53;;;8.74;74.22
46303;BME280;32029;51.358;5.628;2022-11-20T10:29:52;100730.59;;;8.74;73.49
46303;BME280;32029;51.358;5.628;2022-11-20T10:32:37;100770.94;;;9.12;73.02
46303;BME280;32029;51.358;5.628;2022-11-20T10:35:19;100774.31;;;9.22;72.82
46303;BME280;32029;51.358;5.628;2022-11-20T10:37:50;100724.50;;;8.95;73.01
46303;BME280;32029;51.358;5.628;2022-11-20T10:40:41;100768.94;;;9.37;73.26
46303;BME280;32029;51.358;5.628;2022-11-20T10:43:33;100751.75;;;9.43;73.48
46303;BME280;32029;51.358;5.628;2022-11-20T10:46:06;100723.09;;;9.30;73.12
46303;BME280;32029;51.358;5.628;2022-11-20T10:48:38;100693.88;;;9.23;72.63
46303;BME280;32029;51.358;5.628;2022-11-20T10:56:50;100731.00;;;9.71;72.47
46303;BME280;32029;51.358;5.628;2022-11-20T11:00:30;100723.09;;;9.76;72.09
46303;BME280;32029;51.358;5.628;2022-11-20T11:02:51;100702.72;;;9.71;72.18
46303;BME280;32029;51.358;5.628;2022-11-20T11:05:37;100709.00;;;9.79;72.60
46303;BME280;32029;51.358;5.628;2022-11-20T11:08:12;100704.94;;;9.75;72.25
46303;BME280;32029;51.358;5.628;2022-11-20T11:10:53;100674.75;;;9.61;72.51
46303;BME280;32029;51.358;5.628;2022-11-20T11:13:24;100701.09;;;9.85;72.46
46303;BME280;32029;51.358;5.628;2022-11-20T11:15:51;100701.72;;;9.87;72.37
46303;BME280;32029;51.358;5.628;2022-11-20T11:18:33;100670.72;;;9.71;72.34
46303;BME280;32029;51.358;5.628;2022-11-20T11:21:03;100692.09;;;9.91;72.41
46303;BME280;32029;51.358;5.628;2022-11-20T11:23:33;100662.78;;;9.76;72.05
46303;BME280;32029;51.358;5.628;2022-11-20T11:26:05;100673.47;;;9.86;72.79
46303;BME280;32029;51.358;5.628;2022-11-20T11:28:34;100659.00;;;9.77;72.64
46303;BME280;32029;51.358;5.628;2022-11-20T11:31:01;100688.81;;;9.95;72.26
46303;BME280;32029;51.358;5.628;2022-11-20T11:33:30;100642.72;;;9.61;72.60
46303;BME280;32029;51.358;5.628;2022-11-20T11:36:03;100678.09;;;9.86;72.61
46303;BME280;32029;51.358;5.628;2022-11-20T11:38:38;100618.31;;;9.51;72.46
46303;BME280;32029;51.358;5.628;2022-11-20T11:41:08;100668.19;;;9.85;72.72
46303;BME280;32029;51.358;5.628;2022-11-20T11:43:37;100633.34;;;9.55;73.21
46303;BME280;32029;51.358;5.628;2022-11-20T11:46:33;100679.16;;;9.85;73.51
46303;BME280;32029;51.358;5.628;2022-11-20T11:54:24;100593.22;;;9.48;73.75
46303;BME280;32029;51.358;5.628;2022-11-20T11:56:52;100658.19;;;9.92;73.84
46303;BME280;32029;51.358;5.628;2022-11-20T11:59:41;100611.78;;;9.75;73.86
46303;BME280;32029;51.358;5.628;2022-11-20T12:02:29;100653.00;;;9.97;73.99
46303;BME280;32029;51.358;5.628;2022-11-20T12:05:31;100644.41;;;10.00;74.33
46303;BME280;32029;51.358;5.628;2022-11-20T12:08:22;100632.22;;;10.02;74.31
46303;BME280;32029;51.358;5.628;2022-11-20T12:11:05;100627.38;;;10.04;74.35
46303;BME280;32029;51.358;5.628;2022-11-20T12:16:03;100612.06;;;10.10;74.83
46303;BME280;32029;51.358;5.628;2022-11-20T12:18:32;100612.34;;;10.15;74.49
46303;BME280;32029;51.358;5.628;2022-11-20T12:29:30;100576.59;;;10.23;75.05
46303;BME280;32029;51.358;5.628;2022-11-20T12:32:16;100572.81;;;10.24;75.37
46303;BME280;32029;51.358;5.628;2022-11-20T12:37:41;100560.72;;;10.34;75.76
46303;BME280;32029;51.358;5.628;2022-11-20T12:43:29;100542.31;;;10.49;75.94
46303;BME280;32029;51.358;5.628;2022-11-20T12:56:52;100493.94;;;10.63;75.82
46303;BME280;32029;51.358;5.628;2022-11-20T13:08:28;100491.25;;;10.91;75.42
46303;BME280;32029;51.358;5.628;2022-11-20T13:17:00;100392.38;;;10.56;75.44
46303;BME280;32029;51.358;5.628;2022-11-20T13:19:32;100404.00;;;10.58;75.25
46303;BME280;32029;51.358;5.628;2022-11-20T13:21:59;100406.59;;;10.66;75.64
46303;BME280;32029;51.358;5.628;2022-11-20T13:24:28;100455.94;;;11.09;75.59
46303;BME280;32029;51.358;5.628;2022-11-20T13:29:44;100437.50;;;11.03;75.54
46303;BME280;32029;51.358;5.628;2022-11-20T13:32:19;100412.75;;;10.96;75.45
46303;BME280;32029;51.358;5.628;2022-11-20T13:34:58;100388.78;;;10.84;75.74
46303;BME280;32029;51.358;5.628;2022-11-20T13:37:32;100406.84;;;10.99;75.57
46303;BME280;32029;51.358;5.628;2022-11-20T13:42:55;100382.31;;;10.91;75.56
46303;BME280;32029;51.358;5.628;2022-11-20T13:45:32;100414.59;;;11.17;75.86
46303;BME280;32029;51.358;5.628;2022-11-20T13:48:04;100416.28;;;11.18;75.84
46303;BME280;32029;51.358;5.628;2022-11-20T13:50:40;100418.84;;;11.20;75.84
46303;BME280;32029;51.358;5.628;2022-11-20T13:53:27;100361.59;;;10.89;75.70
46303;BME280;32029;51.358;5.628;2022-11-20T13:58:40;100406.97;;;11.19;76.10
46303;BME280;32029;51.358;5.628;2022-11-20T14:01:21;100387.53;;;11.14;75.80
46303;BME280;32029;51.358;5.628;2022-11-20T14:03:50;100369.75;;;11.10;75.80
46303;BME280;32029;51.358;5.628;2022-11-20T14:06:42;100387.13;;;11.17;76.02
46303;BME280;32029;51.358;5.628;2022-11-20T14:09:26;100373.63;;;11.16;76.29
46303;BME280;32029;51.358;5.628;2022-11-20T14:11:53;100377.38;;;11.15;76.25
46303;BME280;32029;51.358;5.628;2022-11-20T14:14:22;100374.84;;;11.13;76.46
46303;BME280;32029;51.358;5.628;2022-11-20T14:16:53;100343.09;;;10.97;76.72
46303;BME280;32029;51.358;5.628;2022-11-20T14:21:51;100357.47;;;11.06;76.78
46303;BME280;32029;51.358;5.628;2022-11-20T14:24:22;100341.09;;;10.85;76.94
46303;BME280;32029;51.358;5.628;2022-11-20T14:26:51;100295.09;;;10.59;77.55
46303;BME280;32029;51.358;5.628;2022-11-20T14:29:27;100333.66;;;10.78;78.29
46303;BME280;32029;51.358;5.628;2022-11-20T14:31:57;100308.28;;;10.70;79.43
46303;BME280;32029;51.358;5.628;2022-11-20T14:34:37;100353.59;;;10.94;80.81
46303;BME280;32029;51.358;5.628;2022-11-20T14:37:11;100314.22;;;10.80;81.23
46303;BME280;32029;51.358;5.628;2022-11-20T14:39:42;100301.88;;;10.63;82.30
46303;BME280;32029;51.358;5.628;2022-11-20T14:42:19;100343.84;;;10.85;83.27
46303;BME280;32029;51.358;5.628;2022-11-20T14:44:47;100294.44;;;10.57;84.19
46303;BME280;32029;51.358;5.628;2022-11-20T14:47:19;100317.56;;;10.69;84.57
46303;BME280;32029;51.358;5.628;2022-11-20T14:49:48;100282.53;;;10.43;85.60